Tiempo atmosférico en la estación meteorológica de Olvera, Cádiz (540 m.)



Fecha
DESCASC
Temp. máxima en grados centígrados (hora)
DESCASC
Temp. mínima en grados centígrados (hora)
DESCASC
Temp. media en grados centígrados
DESCASC
Racha de viento máxima en m/sg (hora)
DESCASC
Velocidad máxima media en intervalos de 10 minutos(hora)
DESCASC
Precipitaciones diarias en mm
DESCASC
Precipitaciones de 00:00 a 06:00 en mm
DESCASC
Precipitaciones de 06:00 a 12:00 en mm
DESCASC
Precipitaciones de 12:00 a 18:00 en mm
DESCASC
Precipitaciones de 18:00 a 24:00 en mm
DESCASC
02-04-2020 13.3 (18:10) 5.8 (08:20) 9.6 10.56 (14:40) 5.56 (17:50) -- -- -- -- --
01-04-2020 14.9 (16:10) 8.2 (05:10) 11.5 12.22 (17:20) 7.5 (17:20) -- 0 -- -- --
31-03-2020 15.3 (16:10) 9.1 (00:00) 12.2 11.39 (04:50) 6.67 (04:50) 4.8 4.8 0 0 0
30-03-2020 16.4 (14:40) 9 (00:00) 12.7 8.89 (18:10) 6.11 (18:00) 2 0 0 0 2
29-03-2020 18 (14:00) 7.2 (00:00) 12.6 6.39 (03:10) 3.61 (19:20) 0 0 0 0 0
28-03-2020 17.4 (13:50) 6.2 (00:00) 11.8 6.94 (11:30) 3.61 (15:00) 0 0 0 0 0
27-03-2020 16.2 (16:30) 6 (00:00) 11.1 10 (15:00) 6.67 (15:50) 0 0 0 0 0
26-03-2020 17.7 (15:10) 9.2 (00:00) 13.5 11.94 (17:40) 7.22 (18:40) 0 0 0 0 0
25-03-2020 16.2 (17:40) 9.6 (00:00) 12.9 6.11 (18:10) 3.61 (17:50) 0.8 0 0.8 0 0
24-03-2020 15.6 (15:10) 8.6 (00:00) 12.1 6.11 (02:00) 3.33 (00:40) 4 0 2.2 1.2 0.6
23-03-2020 15.8 (13:10) 5.2 (00:00) 10.5 8.61 (18:50) 3.89 (19:00) 0.4 0 0 0.4 0
22-03-2020 12.3 (14:40) 5.7 (07:40) 9 7.78 (17:00) 3.33 (15:40) 1.4 1 0 0.4 0
21-03-2020 13 (12:00) 6.2 (00:00) 9.6 13.33 (01:40) 9.17 (01:40) 22.2 11.8 2.8 4.6 3
20-03-2020 18.2 (16:10) 9.8 (00:00) 14 9.72 (20:20) 3.89 (14:30) 0 0 0 0 0
19-03-2020 19.3 (13:40) 11.6 (00:00) 15.4 9.72 (23:00) 3.61 (02:40) 0 0 0 0 0
18-03-2020 18.8 (14:30) 12.1 (00:00) 15.4 15 (12:40) 6.94 (14:50) 0 0 0 0 0
17-03-2020 13.5 (15:50) 4.5 (00:00) 9 15.28 (12:30) 7.22 (16:30) 11.6 8.2 2.8 0.6 0
16-03-2020 12.3 (14:30) 6.2 (00:00) 9.3 10.83 (14:30) 6.39 (14:10) 0.6 0.4 0 0 0.2
15-03-2020 21.2 (15:40) 10.4 (00:00) 15.8 6.67 (15:50) 3.61 (15:50) 0 0 0 0 0
14-03-2020 21.6 (16:40) 9.6 (00:00) 15.6 6.67 (13:40) 4.44 (12:20) 0 0 0 0 0
13-03-2020 21.3 (16:10) 10.7 (08:20) 16 6.39 (17:00) 3.61 (15:40) 0 0 0 0 0
12-03-2020 25 (16:20) 14.2 (00:00) 19.6 6.11 (14:00) 3.61 (13:20) 0 0 0 0 0
11-03-2020 29.2 (13:50) 13 (00:00) 21.1 6.67 (15:10) 3.61 (22:10) 0 0 0 0 0
10-03-2020 25.9 (14:30) 11.1 (00:00) 18.5 6.94 (17:50) 3.89 (18:00) 0 0 0 0 0
09-03-2020 21.4 (15:40) 7.7 (00:00) 14.5 7.78 (17:00) 4.72 (17:00) 0 0 0 0 0
08-03-2020 22.3 (14:50) 7.1 (00:00) 14.7 6.39 (14:30) 3.89 (15:00) 0 0 0 0 0
07-03-2020 18.5 (15:40) 4.4 (00:00) 11.5 9.17 (10:40) 5.28 (13:20) 0 0 0 0 0
06-03-2020 15.4 (17:10) 5.5 (00:00) 10.4 10.56 (16:10) 6.39 (15:00) 0 0 0 0 0
05-03-2020 14 (17:50) 7.5 (00:00) 10.8 9.17 (11:40) 5.83 (10:50) 0 0 0 0 0

Gráficas

Temp. máximas Temp. mínimas Temp. medias Precipitaciones Rachas de viento máximas Velocidades máximas media en intervalos de 10 minutos

Datos horarios

Fecha y hora oficial Temperatura (ºC) Velocidad del viento (km/h) Dirección del viento Racha (km/h) Dirección de racha Precipitación (mm) Presión (hPa) Tendencia (hPa) Humedad (%)
2020-04-03 23:00:00 11.1 9 Sudeste 30 Este -- -- -- 68
2020-04-03 22:00:00 11.7 13 Sudeste 34 Este -- -- -- 67
2020-04-03 21:00:00 13.5 9 Este 27 Sudeste -- -- -- 59
2020-04-03 20:00:00 15.9 9 Sudeste 26 Sudeste -- -- -- 50
2020-04-03 19:00:00 17.4 15 Sudeste 26 Sudeste -- -- -- 48
2020-04-03 18:00:00 18.9 9 Sudeste 27 Sudeste -- -- -- 46
2020-04-03 17:00:00 19.1 9 Sudeste 27 Este -- -- -- 44
2020-04-03 16:00:00 19 12 Este 26 Nordeste -- -- -- 44
2020-04-03 15:00:00 18.1 8 Este 20 Nordeste -- -- -- 48
2020-04-03 14:00:00 18.1 8 Nordeste 21 Nordeste -- -- -- 52
2020-04-03 13:00:00 17 9 Nordeste 18 Nordeste -- -- -- 49
2020-04-03 12:00:00 15.6 3 Nordeste 8 Nordeste -- -- -- 58
2020-04-03 11:00:00 13.1 0 Calma 6 Sudeste -- -- -- 65
2020-04-03 10:00:00 10.1 0 Calma 12 Este -- -- -- 82
2020-04-03 09:00:00 6.9 6 Este 13 Este -- -- -- 85
2020-04-03 08:00:00 6.2 10 Este 14 Este -- -- -- 88
2020-04-03 07:00:00 6.7 7 Este 10 Este -- -- -- 86
2020-04-03 06:00:00 6.9 6 Este 13 Este -- -- -- 86
2020-04-03 05:00:00 6.5 11 Este 15 Este -- -- -- 90
2020-04-03 04:00:00 7 7 Este 12 Este -- -- -- 89
2020-04-03 03:00:00 6.9 8 Este 12 Este -- -- -- 90
2020-04-03 02:00:00 7.4 6 Este 9 Este -- -- -- 91
2020-04-03 01:00:00 7.7 2 Sudeste 6 Sudeste -- -- -- 92
2020-04-03 00:00:00 8.1 0 Calma 4 Sudoeste -- -- -- 91
2020-04-02 23:00:00 8.3 2 Sudeste 7 Oeste -- -- -- 90
2020-04-02 22:00:00 9 6 Oeste 14 Noroeste -- -- -- 85
2020-04-02 21:00:00 10 9 Oeste 19 Oeste -- -- -- 84
2020-04-02 20:00:00 11 9 Noroeste 23 Oeste -- -- -- 73
2020-04-02 19:00:00 11.8 8 Noroeste 27 Oeste -- -- -- 69
2020-04-02 18:00:00 12.6 16 Oeste 30 Oeste -- -- -- 66
2020-04-02 17:00:00 12 8 Noroeste 26 Sudoeste -- -- -- 67
2020-04-02 16:00:00 11.7 11 Noroeste 28 Oeste -- -- -- 70
2020-04-02 15:00:00 10.7 16 Oeste 38 Sudoeste -- -- -- 73
2020-04-02 14:00:00 10.4 14 Oeste 24 Oeste -- -- -- 71
2020-04-02 13:00:00 10.1 4 Sudoeste 18 Este -- -- -- 73
2020-04-02 12:00:00 7.7 3 Sur 10 Este -- -- -- 90
2020-04-02 11:00:00 7.2 6 Sudoeste 14 Sur -- -- -- 89
2020-04-02 10:00:00 7.8 4 Sudoeste 13 Sudeste -- -- -- 86
2020-04-02 09:00:00 6.1 3 Sudeste 14 Sudeste -- -- -- 87
2020-04-02 08:00:00 6.1 4 Sudeste 13 Sudeste -- -- -- 90
2020-04-02 07:00:00 6.7 8 Sur 26 Noroeste -- -- -- 87
2020-04-02 06:00:00 7.6 6 Oeste 18 Sur -- -- -- 91
2020-04-02 05:00:00 7.9 9 Sur 22 Sur -- -- -- 88
2020-04-02 04:00:00 7.9 2 Sur 17 Sudoeste -- -- -- 90
2020-04-02 03:00:00 8 13 Sudoeste 27 Sudoeste -- -- -- 88
2020-04-02 02:00:00 8.6 5 Sudoeste 18 Sudoeste -- -- -- 85
2020-04-02 01:00:00 8.9 3 Sudoeste 18 Sudoeste -- -- -- 82
2020-04-02 00:00:00 9.2 8 Sudoeste 18 Sur -- -- -- 79
2020-04-01 23:00:00 8.7 0 Calma 7 Sudoeste -- -- -- 86
2020-04-01 22:00:00 8.9 3 Sudoeste 12 Sudoeste -- -- -- 86
2020-04-01 21:00:00 8.7 5 Sudoeste 18 Sudoeste -- -- -- 88
2020-04-01 20:00:00 9.4 10 Sudoeste 39 Sudoeste -- -- -- 85
2020-04-01 19:00:00 13 27 Sudoeste 37 Sudoeste -- -- -- 62
2020-04-01 18:00:00 14.2 25 Sudoeste 44 Sudoeste -- -- -- 56
2020-04-01 17:00:00 14.3 27 Sudoeste 44 Sudoeste -- -- -- 60
2020-04-01 16:00:00 14.2 17 Sudoeste 32 Sudoeste -- -- -- 60
2020-04-01 15:00:00 13.9 22 Sudoeste 36 Sudoeste -- -- -- 62
2020-04-01 14:00:00 14 16 Oeste 31 Oeste -- -- -- 59
2020-04-01 13:00:00 12.6 7 Oeste 21 Oeste -- -- -- 68
2020-04-01 12:00:00 10.9 10 Noroeste 21 Oeste -- -- -- 78
2020-04-01 11:00:00 10.1 5 Noroeste 11 Noroeste -- -- -- 81
2020-04-01 10:00:00 8.8 2 Oeste 12 Oeste -- -- -- 95
2020-04-01 09:00:00 8.4 7 Oeste 15 Noroeste 0 -- -- 94
2020-04-01 08:00:00 8.3 3 Oeste 7 Norte 0 -- -- 93
2020-04-01 07:00:00 8.4 4 Norte 8 Noroeste 0 -- -- 92
2020-04-01 06:00:00 8.3 0 Calma 10 Sudoeste 0 -- -- 93
2020-04-01 05:00:00 8.3 2 Sur 15 Sudoeste 0 -- -- 92
2020-04-01 04:00:00 9.3 10 Sudoeste 17 Oeste 0 -- -- 92
2020-04-01 03:00:00 9.8 10 Sudoeste 23 Oeste 0 -- -- 92
2020-04-01 02:00:00 9.9 13 Oeste 22 Noroeste 0 -- -- 92
2020-04-01 01:00:00 10.3 5 Oeste 16 Sudoeste 0 -- -- 90
2020-04-01 00:00:00 11 5 Sudoeste 10 Sudoeste 0 -- -- 85
2020-03-31 23:00:00 11 2 Sudoeste 10 Sudoeste 0 -- -- 84
2020-03-31 22:00:00 11 2 Oeste 25 Sudoeste 0 -- -- 85
2020-03-31 21:00:00 11.1 16 Sudoeste 28 Sudoeste 0 -- -- 85
2020-03-31 20:00:00 11.5 11 Sudoeste 39 Sudoeste 0 -- -- 90
2020-03-31 19:00:00 13.4 18 Sudoeste 26 Sudoeste 0 -- -- 77
2020-03-31 18:00:00 13 12 Sudoeste 31 Sudoeste 0 -- -- 91
2020-03-31 17:00:00 13.2 10 Sudoeste 28 Sudoeste 0 -- -- 83
2020-03-31 16:00:00 14.7 14 Sudoeste 28 Sudoeste 0 -- -- 81
2020-03-31 15:00:00 14.2 8 Sudoeste 23 Sudoeste 0 -- -- 87
2020-03-31 14:00:00 14.4 6 Sur 24 Sudoeste 0 -- -- 72
2020-03-31 13:00:00 13.4 8 Sur 27 Sudoeste 0 -- -- 78
2020-03-31 12:00:00 14.5 9 Oeste 19 Sudoeste 0 -- -- 79
2020-03-31 11:00:00 12.4 4 Sur 16 Sudeste 0 -- -- 89
2020-03-31 10:00:00 10 2 Sur 11 Sudeste 0 -- -- 96
2020-03-31 09:00:00 9.1 3 Sudoeste 19 Sudoeste 0 -- -- 94
2020-03-31 08:00:00 9.3 4 Sudoeste 27 Noroeste 0 -- -- 90
2020-03-31 07:00:00 10.6 9 Sur 26 Sur 0 -- -- 85
2020-03-31 06:00:00 11 16 Sur 37 Sur 0 -- -- 80
2020-03-31 05:00:00 11.1 19 Sur 41 Sur 0 -- -- 81
2020-03-31 04:00:00 9.9 17 Sur 35 Sudoeste 1 -- -- 89
2020-03-31 03:00:00 10.1 12 Sur 26 Sudoeste 3.2 -- -- 93
2020-03-31 02:00:00 10 3 Sur 13 Este 0.2 -- -- 90
2020-03-31 01:00:00 9.9 6 Este 10 Este 0.4 -- -- 86
2020-03-31 00:00:00 10 3 Sudeste 17 Sudoeste 1.6 -- -- 87
2020-03-30 23:00:00 10.9 0 Calma 16 Sudeste 0.2 -- -- 84
2020-03-30 22:00:00 11.4 4 Nordeste 13 Nordeste 0 -- -- 88
2020-03-30 21:00:00 12 6 Norte 10 Nordeste 0.2 -- -- 82
2020-03-30 20:00:00 12.9 3 Oeste 19 Sudoeste 0 -- -- 74
2020-03-30 19:00:00 13.3 12 Oeste 32 Sudoeste 0 -- -- 74
2020-03-30 18:00:00 13.6 22 Sudoeste 30 Oeste 0 -- -- 72
2020-03-30 17:00:00 14.3 16 Sudoeste 26 Sudoeste 0 -- -- 64
2020-03-30 16:00:00 15.3 13 Oeste 21 Oeste 0 -- -- 64
2020-03-30 15:00:00 15.7 12 Oeste 21 Oeste 0 -- -- 63
2020-03-30 14:00:00 15.8 10 Oeste 18 Oeste 0 -- -- 60
2020-03-30 13:00:00 14.5 6 Oeste 13 Sudoeste 0 -- -- 65
2020-03-30 12:00:00 12.8 6 Oeste 13 Sudoeste 0 -- -- 71
2020-03-30 11:00:00 11.9 0 Calma 5 Sudeste 0 -- -- 81
2020-03-30 10:00:00 10.5 0 Calma 8 Este 0 -- -- 94
2020-03-30 09:00:00 9.4 5 Este 9 Sudeste 0 -- -- 95
2020-03-30 08:00:00 9.4 0 Calma 8 Oeste 0 -- -- 93
2020-03-30 07:00:00 10 3 Sudoeste 6 Sudoeste 0 -- -- 95
2020-03-30 06:00:00 10.2 4 Sudoeste 7 Sudoeste 0 -- -- 94
2020-03-30 05:00:00 10 0 Calma 7 Sudeste 0 -- -- 94
2020-03-30 04:00:00 10.5 2 Sudoeste 4 Sudoeste 0 -- -- 94
2020-03-30 03:00:00 10.5 0 Calma 8 Sudoeste 0 -- -- 95
2020-03-30 02:00:00 10.5 2 Sudoeste 4 Sudoeste 0 -- -- 92
2020-03-30 01:00:00 10.9 3 Sudoeste 5 Sudoeste 0 -- -- 89
2020-03-30 00:00:00 11.4 0 Calma 3 Sudeste 0 -- -- 86
2020-03-29 23:00:00 11.8 0 Calma 10 Sudoeste 0 -- -- 86
2020-03-29 22:00:00 12.3 5 Oeste 13 Oeste 0 -- -- 84
2020-03-29 21:00:00 12.9 8 Sudoeste 14 Oeste 0 -- -- 82
2020-03-29 20:00:00 14 5 Oeste 21 Oeste 0 -- -- 72
2020-03-29 19:00:00 15.4 4 Noroeste 12 Oeste 0 -- -- 63
2020-03-29 18:00:00 15.7 7 Oeste 21 Oeste 0 -- -- 59
2020-03-29 17:00:00 16.3 9 Oeste 12 Sudoeste 0 -- -- 57
2020-03-29 16:00:00 16.4 3 Oeste 14 Oeste 0 -- -- 54
2020-03-29 15:00:00 16.1 6 Oeste 13 Sudoeste 0 -- -- 59
2020-03-29 14:00:00 18 5 Noroeste 18 Oeste 0 -- -- 50
2020-03-29 13:00:00 16.5 5 Norte 16 Oeste 0 -- -- 53
2020-03-29 12:00:00 15.6 5 Noroeste 9 Noroeste 0 -- -- 57
2020-03-29 11:00:00 13.4 3 Sur 11 Este 0 -- -- 60
2020-03-29 10:00:00 11 2 Sudeste 11 Sudeste 0 -- -- 72
2020-03-29 09:00:00 7.6 3 Este 12 Sudeste 0 -- -- 85
2020-03-29 08:00:00 7.3 5 Este 8 Este 0 -- -- 86
2020-03-29 07:00:00 7.4 6 Este 9 Este 0 -- -- 84
2020-03-29 06:00:00 8.5 5 Este 15 Este 0 -- -- 79
2020-03-29 05:00:00 8.6 4 Sudeste 15 Sudeste 0 -- -- 80
2020-03-29 03:00:00 9.4 10 Sudeste 21 Sudeste 0 -- -- 81
2020-03-29 01:00:00 9.5 9 Sudeste 17 Sudeste 0 -- -- 83
2020-03-29 00:00:00 9.4 4 Sudeste 15 Sudeste 0 -- -- 84
2020-03-28 23:00:00 10 8 Sudeste 18 Sudeste 0 -- -- 82
2020-03-28 22:00:00 10.5 5 Sudeste 9 Sudeste 0 -- -- 79
2020-03-28 21:00:00 11.7 3 Sudeste 8 Sudeste 0 -- -- 76
2020-03-28 20:00:00 12.1 0 Calma 12 Sur 0 -- -- 75
2020-03-28 19:00:00 12.8 2 Sudeste 19 Sudeste 0 -- -- 70
2020-03-28 18:00:00 13.4 6 Sudeste 16 Sudeste 0 -- -- 66
2020-03-28 17:00:00 13.7 5 Este 18 Sudeste 0 -- -- 65
2020-03-28 16:00:00 14.3 8 Sudeste 22 Sudeste 0 -- -- 65
2020-03-28 15:00:00 14.6 13 Este 22 Este 0 -- -- 64
2020-03-28 14:00:00 16.5 13 Norte 20 Norte 0 -- -- 58
2020-03-28 13:00:00 15.4 5 Noroeste 22 Sudoeste 0 -- -- 62
2020-03-28 12:00:00 15.5 12 Sudoeste 25 Sudoeste 0 -- -- 61
2020-03-28 11:00:00 14.2 9 Sudoeste 22 Oeste 0 -- -- 67
2020-03-28 10:00:00 13 0 Calma 9 Este 0 -- -- 71
2020-03-28 09:00:00 10.1 3 Sudeste 11 Este 0 -- -- 81
2020-03-28 08:00:00 6.6 3 Sudeste 13 Este 0 -- -- 93
2020-03-28 07:00:00 6.4 4 Este 7 Este 0 -- -- 92
2020-03-28 06:00:00 6.5 2 Este 5 Este 0 -- -- 92
2020-03-28 05:00:00 6.4 0 Calma 6 Este 0 -- -- 93
2020-03-28 04:00:00 6.5 6 Este 9 Este 0 -- -- 93
2020-03-28 03:00:00 6.4 4 Este 6 Este 0 -- -- 92
2020-03-28 02:00:00 7.1 3 Este 6 Nordeste 0 -- -- 91
2020-03-28 01:00:00 7.8 4 Norte 8 Nordeste 0 -- -- 90
2020-03-28 00:00:00 8.4 4 Este 9 Nordeste 0 -- -- 89
2020-03-27 23:00:00 9 7 Nordeste 10 Nordeste 0 -- -- 87
2020-03-27 22:00:00 8.9 0 Calma 12 Sur 0 -- -- 87
2020-03-27 21:00:00 9.8 3 Sur 12 Oeste 0 -- -- 82
2020-03-27 20:00:00 11 10 Oeste 23 Noroeste 0 -- -- 78
2020-03-27 19:00:00 13.5 15 Oeste 27 Oeste 0 -- -- 64
2020-03-27 18:00:00 15 21 Sudoeste 31 Sudoeste 0 -- -- 59
2020-03-27 17:00:00 16 20 Sudoeste 32 Sudoeste 0 -- -- 55
2020-03-27 16:00:00 15.7 22 Sudoeste 35 Sudoeste 0 -- -- 56
2020-03-27 15:00:00 15.9 22 Sudoeste 36 Sudoeste 0 -- -- 52
2020-03-27 14:00:00 14.8 19 Sudoeste 32 Sudoeste 0 -- -- 64
2020-03-27 13:00:00 13.8 22 Sudoeste 33 Sudoeste 0 -- -- 68
2020-03-27 12:00:00 13.5 15 Oeste 28 Sudoeste 0 -- -- 73
2020-03-27 11:00:00 12.3 13 Sudoeste 23 Sudoeste 0 -- -- 72
2020-03-27 10:00:00 10.2 14 Sudoeste 20 Sudoeste 0 -- -- 81
2020-03-27 09:00:00 9.1 9 Sudoeste 16 Sudoeste 0 -- -- 81
2020-03-27 08:00:00 6.8 3 Sudeste 9 Sudeste 0 -- -- 82
2020-03-27 07:00:00 6.1 0 Calma 6 Este 0 -- -- 89
2020-03-27 06:00:00 6.7 0 Calma 9 Este 0 -- -- 91
2020-03-27 05:00:00 7.4 0 Calma 7 Este 0 -- -- 92
2020-03-27 04:00:00 8.1 0 Calma 6 Sur 0 -- -- 93
2020-03-27 03:00:00 8.9 3 Sur 10 Sudoeste 0 -- -- 92
2020-03-27 02:00:00 9.5 4 Sur 10 Sur 0 -- -- 90
2020-03-27 01:00:00 10 2 Sudoeste 6 Sur 0 -- -- 89
2020-03-27 00:00:00 10.8 3 Sur 12 Oeste 0 -- -- 84
2020-03-26 23:00:00 11.1 5 Sudoeste 17 Sudoeste 0 -- -- 81
2020-03-26 22:00:00 11.4 9 Sudoeste 23 Sudoeste 0 -- -- 78
2020-03-26 21:00:00 11.9 14 Sudoeste 25 Sudoeste 0 -- -- 79
2020-03-26 20:00:00 12.9 13 Sudoeste 32 Sudoeste 0 -- -- 75
2020-03-26 19:00:00 14.7 21 Oeste 41 Sudoeste 0 -- -- 68
2020-03-26 18:00:00 16.1 24 Sudoeste 43 Sudoeste 0 -- -- 64
2020-03-26 17:00:00 16.3 18 Oeste 36 Oeste 0 -- -- 61
2020-03-26 16:00:00 17.6 21 Oeste 38 Oeste 0 -- -- 54
2020-03-26 15:00:00 17.4 26 Oeste 42 Sudoeste 0 -- -- 55
2020-03-26 14:00:00 16.9 19 Oeste 34 Oeste 0 -- -- 59
2020-03-26 13:00:00 16 22 Sudoeste 37 Sudoeste 0 -- -- 67
2020-03-26 12:00:00 15.1 20 Sudoeste 32 Oeste 0 -- -- 72
2020-03-26 11:00:00 13.4 12 Oeste 24 Sudoeste 0 -- -- 81
2020-03-26 10:00:00 12.5 12 Oeste 20 Sudoeste 0 -- -- 84
2020-03-26 09:00:00 10.7 4 Sudoeste 9 Sudoeste 0 -- -- 92
2020-03-26 08:00:00 10.1 3 Sudoeste 9 Sudoeste 0 -- -- 92
2020-03-26 07:00:00 9.9 5 Sudoeste 8 Sudoeste 0 -- -- 92
2020-03-26 06:00:00 9.7 2 Sudeste 6 Sur 0 -- -- 90
2020-03-26 05:00:00 10.1 0 Calma 6 Sur 0 -- -- 90
2020-03-26 04:00:00 10 0 Calma 8 Oeste 0 -- -- 89
2020-03-26 03:00:00 9.8 0 Calma 5 Este 0 -- -- 89
2020-03-26 02:00:00 9.7 0 Calma 7 Sudeste 0 -- -- 90
2020-03-26 01:00:00 9.5 2 Sudeste 6 Este 0 -- -- 88
2020-03-26 00:00:00 9.9 2 Sudeste 6 Sudeste 0 -- -- 87
2020-03-25 23:00:00 10.9 2 Sudeste 8 Sudoeste 0 -- -- 85
2020-03-25 22:00:00 11.1 0 Calma 7 Sudoeste 0 -- -- 83
2020-03-25 21:00:00 11.3 3 Oeste 7 Sudoeste 0 -- -- 81
2020-03-25 20:00:00 12.2 2 Sur 16 Oeste 0 -- -- 79
2020-03-25 19:00:00 14.4 10 Oeste 22 Sudoeste 0 -- -- 69
2020-03-25 18:00:00 15.3 11 Sudoeste 18 Sudoeste 0 -- -- 67
2020-03-25 17:00:00 14.6 3 Sur 19 Sudoeste 0 -- -- 68
2020-03-25 16:00:00 14.8 9 Sudoeste 18 Sudoeste 0 -- -- 70
2020-03-25 15:00:00 13.4 2 Noroeste 11 Sudoeste 0 -- -- 75
2020-03-25 14:00:00 12.4 3 Sudeste 11 Sudeste 0 -- -- 80
2020-03-25 13:00:00 11.4 4 Sur 12 Este 0 -- -- 82
2020-03-25 12:00:00 10.1 4 Sudeste 18 Sudeste 0 -- -- 87
2020-03-25 11:00:00 9.6 5 Sudeste 17 Este 0.8 -- -- 89
2020-03-25 10:00:00 9.9 3 Sur 12 Sudeste 0 -- -- 94
2020-03-25 09:00:00 10.4 0 Calma 5 Sudoeste 0 -- -- 97
2020-03-25 08:00:00 10.3 3 Oeste 8 Oeste 0 -- -- 97
2020-03-25 07:00:00 10.3 0 Calma 4 Norte 0 -- -- 96
2020-03-25 06:00:00 10.3 0 Calma 8 Noroeste 0 -- -- 96
2020-03-25 05:00:00 10.6 4 Noroeste 9 Oeste 0 -- -- 94
2020-03-25 04:00:00 10.9 2 Noroeste 5 Noroeste 0 -- -- 91
2020-03-25 03:00:00 11.1 0 Calma 4 Este 0 -- -- 90
2020-03-25 02:00:00 11 0 Calma 6 Este 0 -- -- 91
2020-03-25 01:00:00 11 0 Calma 7 Este 0 -- -- 89
2020-03-25 00:00:00 10.7 4 Este 10 Este 0 -- -- 90
2020-03-24 23:00:00 10.7 5 Este 10 Este 0 -- -- 91
2020-03-24 22:00:00 11.4 5 Este 8 Sudeste 0 -- -- 91
2020-03-24 21:00:00 11.5 2 Sudoeste 9 Sudoeste 0 -- -- 91
2020-03-24 20:00:00 11.9 6 Oeste 11 Sudoeste 0.2 -- -- 92
2020-03-24 19:00:00 12.8 8 Sudoeste 12 Oeste 0.4 -- -- 88
2020-03-24 18:00:00 13.9 4 Sudoeste 12 Sudoeste 1 -- -- 88
2020-03-24 17:00:00 15.2 5 Oeste 8 Oeste 0.2 -- -- 76
2020-03-24 16:00:00 15.2 4 Norte 10 Nordeste 0 -- -- 71
2020-03-24 15:00:00 15.5 4 Nordeste 12 Nordeste 0 -- -- 70
2020-03-24 14:00:00 13 0 Calma 9 Sudoeste 0 -- -- 85
2020-03-24 13:00:00 12.4 5 Sudoeste 8 Sudoeste 0 -- -- 87
2020-03-24 12:00:00 11.8 3 Norte 9 Norte 0.2 -- -- 87
2020-03-24 11:00:00 10.9 3 Sudeste 8 Sudeste 0 -- -- 91
2020-03-24 10:00:00 10.3 5 Este 12 Este 0 -- -- 89
2020-03-24 09:00:00 9.4 8 Este 18 Este 2 -- -- 92
2020-03-24 08:00:00 9.4 4 Sudeste 14 Este 0 -- -- 86
2020-03-24 07:00:00 9.6 3 Este 17 Este 0 -- -- 82
2020-03-24 06:00:00 8.9 3 Este 13 Este 0 -- -- 85
2020-03-24 05:00:00 8.6 0 Calma 12 Sudeste 0 -- -- 86
2020-03-24 04:00:00 8.9 0 Calma 16 Este 0 -- -- 85
2020-03-24 03:00:00 9.4 4 Este 19 Este 0 -- -- 84
2020-03-24 02:00:00 9.4 10 Este 22 Este 0 -- -- 82
2020-03-24 01:00:00 9.1 10 Este 21 Nordeste 0 -- -- 83
2020-03-24 00:00:00 9 12 Este 27 Este 0 -- -- 80
2020-03-23 23:00:00 9.3 9 Nordeste 23 Este 0 -- -- 79
2020-03-23 22:00:00 9.7 4 Este 13 Nordeste 0 -- -- 78
2020-03-23 21:00:00 9.8 4 Este 17 Nordeste 0 -- -- 80
2020-03-23 20:00:00 10.1 7 Sudeste 27 Sudeste 0 -- -- 75
2020-03-23 19:00:00 11.6 14 Sudeste 31 Este 0 -- -- 67
2020-03-23 18:00:00 11.9 8 Sudeste 20 Sudeste 0.4 -- -- 73
2020-03-23 17:00:00 13.2 2 Sudoeste 22 Este 0 -- -- 63
2020-03-23 16:00:00 13.7 8 Sudeste 26 Sudeste 0 -- -- 60
2020-03-23 15:00:00 14.6 8 Sudeste 27 Este 0 -- -- 57
2020-03-23 14:00:00 13.8 10 Sudeste 28 Sudeste 0 -- -- 62
2020-03-23 13:00:00 15.5 6 Nordeste 15 Nordeste 0 -- -- 52
2020-03-23 12:00:00 13.9 5 Norte 14 Este 0 -- -- 67
2020-03-23 11:00:00 12 6 Nordeste 14 Nordeste 0 -- -- 71
2020-03-23 10:00:00 11.4 2 Sudeste 9 Este 0 -- -- 74
2020-03-23 09:00:00 7.9 5 Este 12 Sudeste 0 -- -- 85
2020-03-23 08:00:00 5.4 5 Este 8 Este 0 -- -- 92
2020-03-23 07:00:00 5.4 3 Este 10 Este 0 -- -- 92
2020-03-23 06:00:00 5.6 6 Este 9 Este 0 -- -- 91
2020-03-23 05:00:00 5.2 6 Este 9 Este 0 -- -- 92
2020-03-23 04:00:00 6.2 2 Nordeste 10 Este 0 -- -- 91
2020-03-23 03:00:00 5.9 5 Este 10 Este 0 -- -- 91
2020-03-23 02:00:00 6.7 4 Sudeste 11 Sudeste 0 -- -- 88
2020-03-23 01:00:00 6.9 4 Este 8 Este 0 -- -- 91
2020-03-23 00:00:00 7 3 Sudeste 9 Sudeste 0 -- -- 91
2020-03-22 23:00:00 7.9 4 Este 8 Este 0 -- -- 90
2020-03-22 22:00:00 8.5 3 Este 5 Este 0 -- -- 87
2020-03-22 21:00:00 9 0 Calma 4 Norte 0 -- -- 83
2020-03-22 20:00:00 9.8 3 Noroeste 5 Noroeste 0 -- -- 79
2020-03-22 19:00:00 10.1 3 Norte 15 Norte 0 -- -- 79
2020-03-22 18:00:00 11 9 Norte 15 Noroeste 0 -- -- 81
2020-03-22 17:00:00 11.1 9 Oeste 28 Oeste 0 -- -- 78
2020-03-22 16:00:00 10.3 8 Noroeste 24 Noroeste 0.4 -- -- 84
2020-03-22 15:00:00 11.9 11 Oeste 17 Oeste 0 -- -- 74
2020-03-22 14:00:00 12 6 Noroeste 16 Oeste 0 -- -- 70
2020-03-22 13:00:00 11.7 6 Oeste 12 Oeste 0 -- -- 66
2020-03-22 12:00:00 10.6 3 Oeste 11 Oeste 0 -- -- 72
2020-03-22 11:00:00 10.4 4 Sudoeste 10 Sur 0 -- -- 74
2020-03-22 10:00:00 9.9 2 Sudeste 6 Este 0 -- -- 78
2020-03-22 09:00:00 8.8 2 Sudeste 6 Sudeste 0 -- -- 85
2020-03-22 08:00:00 5.8 4 Este 8 Sudeste 0 -- -- 93
2020-03-22 07:00:00 5.9 3 Este 9 Sudeste 0 -- -- 92
2020-03-22 06:00:00 6.2 2 Sudeste 9 Este 0 -- -- 92
2020-03-22 05:00:00 6.5 0 Calma 10 Sudeste 0 -- -- 92
2020-03-22 04:00:00 6.8 3 Sudeste 10 Sudeste 0.4 -- -- 94
2020-03-22 03:00:00 7 3 Sudeste 10 Sudeste 0 -- -- 93
2020-03-22 02:00:00 7.2 2 Sudeste 8 Sudeste 0.2 -- -- 93
2020-03-22 01:00:00 7.2 0 Calma 8 Sudeste 0.4 -- -- 94
2020-03-22 00:00:00 7.2 4 Sudeste 8 Nordeste 1.2 -- -- 93
2020-03-21 23:00:00 6.9 5 Este 14 Sudeste 0 -- -- 94
2020-03-21 22:00:00 6.3 2 Sudeste 13 Sudeste 0 -- -- 94
2020-03-21 21:00:00 6.6 2 Sudeste 25 Oeste 0.2 -- -- 93
2020-03-21 20:00:00 8.1 10 Sudoeste 22 Sudoeste 1 -- -- 92
2020-03-21 19:00:00 8.5 3 Sur 20 Sur 0.6 -- -- 92
2020-03-21 18:00:00 8.9 9 Sur 36 Sur 2 -- -- 90
2020-03-21 17:00:00 10 19 Sur 36 Sur 0.2 -- -- 79
2020-03-21 16:00:00 8.5 9 Sur 45 Sur 0.8 -- -- 87
2020-03-21 15:00:00 9.2 7 Sudoeste 16 Sudoeste 0.8 -- -- 85
2020-03-21 14:00:00 9.7 10 Sudoeste 22 Sudoeste 0.8 -- -- 87
2020-03-21 13:00:00 9.5 24 Sudoeste 46 Oeste 0 -- -- 85
2020-03-21 12:00:00 13 8 Sur 19 Sudoeste 0 -- -- 64
2020-03-21 11:00:00 11.2 10 Sudoeste 19 Sudoeste 0 -- -- 77
2020-03-21 10:00:00 10.4 2 Sur 9 Sudeste 0 -- -- 86
2020-03-21 09:00:00 7.7 0 Calma 8 Sudeste 0.2 -- -- 95
2020-03-21 08:00:00 6.8 0 Calma 13 Oeste 1.6 -- -- 94
2020-03-21 07:00:00 7.4 6 Oeste 13 Oeste 1 -- -- 96
2020-03-21 06:00:00 7.3 0 Calma 9 Sudoeste 0 -- -- 96
2020-03-21 05:00:00 8 5 Sudoeste 13 Sudoeste 0 -- -- 96
2020-03-21 04:00:00 8.1 9 Sudoeste 16 Oeste 0.4 -- -- 96
2020-03-21 03:00:00 8.4 8 Sudoeste 32 Sudoeste 3.4 -- -- 96
2020-03-21 02:00:00 8.5 22 Sudoeste 48 Sudoeste 8 -- -- 95
2020-03-21 01:00:00 12.5 11 Sudoeste 21 Sudoeste 0 -- -- 80
2020-03-21 00:00:00 12.5 3 Sur 21 Sur 0 -- -- 76
2020-03-20 23:00:00 12.4 3 Sur 19 Sudeste 0 -- -- 78
2020-03-20 22:00:00 12.4 7 Sur 23 Sudeste 0 -- -- 77
2020-03-20 21:00:00 12.4 8 Sur 35 Sur 0 -- -- 74
2020-03-20 20:00:00 13.1 12 Sur 30 Sudeste 0 -- -- 71
2020-03-20 19:00:00 14.4 7 Sur 24 Este 0 -- -- 65
2020-03-20 18:00:00 16.1 8 Sur 22 Sudoeste 0 -- -- 61
2020-03-20 17:00:00 17 11 Sur 27 Sur 0 -- -- 60
2020-03-20 16:00:00 17.8 5 Sudeste 22 Sudoeste 0 -- -- 55
2020-03-20 15:00:00 15.6 8 Sur 27 Sudoeste 0 -- -- 60
2020-03-20 14:00:00 15.2 11 Sur 32 Sudoeste 0 -- -- 63
2020-03-20 13:00:00 17.2 8 Sur 28 Sur 0 -- -- 58
2020-03-20 12:00:00 16.3 12 Sur 28 Sur 0 -- -- 60
2020-03-20 11:00:00 14.2 6 Sur 19 Sur 0 -- -- 69
2020-03-20 10:00:00 12.8 5 Sudeste 21 Sudeste 0 -- -- 69
2020-03-20 09:00:00 11.7 4 Sur 16 Sudeste 0 -- -- 75
2020-03-20 08:00:00 10.3 4 Sudeste 19 Sudeste 0 -- -- 81
2020-03-20 07:00:00 10 4 Sur 13 Este 0 -- -- 78
2020-03-20 06:00:00 10.5 5 Sudeste 13 Este 0 -- -- 72
2020-03-20 05:00:00 10.7 7 Este 11 Este 0 -- -- 71
2020-03-20 04:00:00 10.6 4 Sudeste 14 Este 0 -- -- 77
2020-03-20 03:00:00 11.4 0 Calma 15 Sur 0 -- -- 79
2020-03-20 02:00:00 11.8 6 Sur 20 Sur 0 -- -- 78
2020-03-20 01:00:00 12.1 9 Sur 19 Sur 0 -- -- 77
2020-03-20 00:00:00 12.3 8 Sur 25 Sudoeste 0 -- -- 77
2020-03-19 23:00:00 12.3 12 Sur 35 Sudoeste 0 -- -- 77
2020-03-19 22:00:00 12.6 12 Sudeste 30 Este 0 -- -- 73
2020-03-19 21:00:00 12.6 3 Sur 15 Este 0 -- -- 72
2020-03-19 20:00:00 13.7 2 Sudeste 12 Sudeste 0 -- -- 68
2020-03-19 19:00:00 15.2 3 Sur 13 Sudeste 0 -- -- 64
2020-03-19 18:00:00 16.1 4 Sur 19 Sur 0 -- -- 61
2020-03-19 17:00:00 16.1 6 Sur 30 Sudoeste 0 -- -- 60
2020-03-19 16:00:00 16.9 9 Sur 31 Sudoeste 0 -- -- 58
2020-03-19 15:00:00 16.8 6 Sur 23 Sur 0 -- -- 59
2020-03-19 14:00:00 18.2 8 Sur 26 Sur 0 -- -- 55
2020-03-19 13:00:00 16.8 9 Sur 26 Sur 0 -- -- 58
2020-03-19 12:00:00 16.7 8 Sur 31 Sur 0 -- -- 59
2020-03-19 11:00:00 15.5 7 Sur 21 Este 0 -- -- 65
2020-03-19 10:00:00 13.5 5 Sudeste 23 Sudeste 0 -- -- 71
2020-03-19 09:00:00 12.4 6 Sudeste 28 Sudeste 0 -- -- 74
2020-03-19 08:00:00 12 6 Sudeste 24 Sudeste 0 -- -- 75
2020-03-19 07:00:00 12.1 6 Sur 32 Sudoeste 0 -- -- 76
2020-03-19 06:00:00 11.9 4 Sur 17 Sudeste 0 -- -- 77
2020-03-19 05:00:00 11.7 2 Sur 17 Sur 0 -- -- 75
2020-03-19 04:00:00 12.2 4 Sur 24 Sudoeste 0 -- -- 72
2020-03-19 03:00:00 12.5 8 Sur 32 Sudoeste 0 -- -- 73
2020-03-19 02:00:00 12.3 5 Sur 21 Sudeste 0 -- -- 71
2020-03-19 01:00:00 12.5 5 Sur 28 Sudeste 0 -- -- 71
2020-03-19 00:00:00 13 11 Sudeste 30 Sudeste 0 -- -- 69
2020-03-18 23:00:00 13.3 7 Sudeste 22 Sudeste 0 -- -- 67
2020-03-18 22:00:00 13.9 6 Sudeste 15 Sudeste 0 -- -- 62
2020-03-18 21:00:00 14.3 7 Sudeste 39 Sudeste 0 -- -- 62
2020-03-18 20:00:00 14.8 17 Sudeste 44 Este 0 -- -- 60
2020-03-18 19:00:00 15.5 20 Sudeste 46 Sudeste 0 -- -- 58
2020-03-18 18:00:00 16.9 16 Sudeste 50 Sudeste 0 -- -- 56
2020-03-18 17:00:00 18 17 Sudeste 43 Sudeste 0 -- -- 55
2020-03-18 16:00:00 18 19 Sudeste 49 Sudeste 0 -- -- 56
2020-03-18 15:00:00 17.9 23 Sudeste 48 Este 0 -- -- 56
2020-03-18 14:00:00 18.1 12 Sudeste 47 Sudeste 0 -- -- 58
2020-03-18 13:00:00 15.5 20 Sudeste 54 Sudeste 0 -- -- 65
2020-03-18 12:00:00 15.8 19 Sudeste 40 Sudeste 0 -- -- 63
2020-03-18 11:00:00 15.3 16 Sudeste 40 Este 0 -- -- 65
2020-03-18 10:00:00 14.7 13 Este 40 Sudeste 0 -- -- 68
2020-03-18 09:00:00 14.9 7 Sudeste 37 Sudeste 0 -- -- 66
2020-03-18 08:00:00 14.8 10 Sudeste 34 Sudeste 0 -- -- 65
2020-03-18 07:00:00 14.2 12 Sudeste 43 Sudeste 0 -- -- 67
2020-03-18 06:00:00 13.7 11 Sudeste 40 Sudeste 0 -- -- 69
2020-03-18 05:00:00 13.1 16 Sudeste 35 Este 0 -- -- 75
2020-03-18 04:00:00 13.6 12 Sudeste 40 Sudeste 0 -- -- 73
2020-03-18 03:00:00 13.9 19 Sudeste 42 Sudeste 0 -- -- 72
2020-03-18 02:00:00 13.9 11 Sudeste 44 Sudeste 0 -- -- 74
2020-03-18 01:00:00 13.2 12 Sudeste 32 Este 0 -- -- 78
2020-03-18 00:00:00 12.1 10 Sudeste 21 Este 0 -- -- 78
2020-03-17 23:00:00 10.9 11 Norte 22 Nordeste 0 -- -- 72
2020-03-17 22:00:00 11.7 14 Este 23 Este 0 -- -- 68
2020-03-17 21:00:00 12.2 12 Nordeste 33 Este 0 -- -- 70
2020-03-17 20:00:00 11.7 17 Este 36 Este 0 -- -- 71
2020-03-17 19:00:00 11.6 8 Este 37 Este 0 -- -- 71
2020-03-17 18:00:00 12.7 19 Este 44 Este 0 -- -- 57
2020-03-17 17:00:00 13.4 19 Este 46 Sudeste 0.2 -- -- 51
2020-03-17 16:00:00 13.3 20 Este 42 Este 0 -- -- 52
2020-03-17 15:00:00 11.4 16 Este 40 Este 0.4 -- -- 63
2020-03-17 14:00:00 12.2 13 Sudeste 44 Sudeste 0 -- -- 59
2020-03-17 13:00:00 13.1 17 Sudeste 55 Sudeste 0 -- -- 52
2020-03-17 12:00:00 11.2 18 Sudeste 44 Sudeste 0 -- -- 63
2020-03-17 11:00:00 8.8 3 Sur 20 Sudeste 0 -- -- 82
2020-03-17 10:00:00 6.2 4 Sudeste 19 Este 0.4 -- -- 90
2020-03-17 09:00:00 5.5 6 Sudeste 22 Sudeste 0.8 -- -- 89
2020-03-17 08:00:00 4.8 8 Sudeste 24 Este 1.6 -- -- 91
2020-03-17 07:00:00 5.5 8 Este 18 Sudeste 0 -- -- 91
2020-03-17 06:00:00 5.1 3 Este 6 Este 0.4 -- -- 92
2020-03-17 05:00:00 4.8 0 Calma 8 Sur 2 -- -- 95
2020-03-17 04:00:00 4.7 2 Sur 11 Sudoeste 3.8 -- -- 93
2020-03-17 03:00:00 5.1 3 Sudoeste 12 Sudoeste 1.6 -- -- 91
2020-03-17 02:00:00 5.8 4 Sudoeste 13 Sudoeste 0.4 -- -- 86
2020-03-17 01:00:00 6.4 6 Sudoeste 10 Oeste 0 -- -- 83
2020-03-17 00:00:00 6.5 0 Calma 5 Este 0 -- -- 81
2020-03-16 23:00:00 6.6 0 Calma 4 Sudeste 0 -- -- 81
2020-03-16 22:00:00 6.8 2 Norte 19 Noroeste 0.2 -- -- 76
2020-03-16 21:00:00 8.2 7 Noroeste 20 Norte 0 -- -- 65
2020-03-16 20:00:00 9.4 6 Noroeste 22 Noroeste 0 -- -- 58
2020-03-16 19:00:00 10.2 6 Oeste 26 Oeste 0 -- -- 50
2020-03-16 18:00:00 10.9 14 Oeste 31 Oeste 0 -- -- 49
2020-03-16 17:00:00 11.2 11 Oeste 34 Oeste 0 -- -- 48
2020-03-16 16:00:00 11.4 14 Oeste 33 Oeste 0 -- -- 48
2020-03-16 15:00:00 11.7 18 Oeste 39 Oeste 0 -- -- 48
2020-03-16 14:00:00 11.3 20 Oeste 38 Oeste 0 -- -- 48
2020-03-16 13:00:00 11.3 21 Oeste 36 Oeste 0 -- -- 47
2020-03-16 12:00:00 10.4 13 Noroeste 23 Noroeste 0 -- -- 51
2020-03-16 11:00:00 8.8 9 Noroeste 27 Oeste 0 -- -- 55
2020-03-16 10:00:00 8.2 9 Noroeste 17 Norte 0 -- -- 56
2020-03-16 09:00:00 7.1 5 Noroeste 17 Noroeste 0 -- -- 58
2020-03-16 08:00:00 6.6 5 Noroeste 13 Noroeste 0 -- -- 64
2020-03-16 07:00:00 7.1 6 Noroeste 13 Nordeste 0 -- -- 66
2020-03-16 06:00:00 7.9 8 Norte 17 Norte 0.2 -- -- 72
2020-03-16 05:00:00 9 3 Norte 23 Oeste 0.2 -- -- 91
2020-03-16 04:00:00 10.4 15 Oeste 32 Oeste 0 -- -- 91
2020-03-16 03:00:00 11.8 5 Sudoeste 11 Sudoeste 0 -- -- 86
2020-03-16 02:00:00 11.7 8 Sudoeste 14 Sudoeste 0 -- -- 87
2020-03-16 01:00:00 11.8 7 Sudoeste 10 Sudoeste 0 -- -- 90
2020-03-16 00:00:00 11.7 3 Sudoeste 13 Noroeste 0 -- -- 89
2020-03-15 23:00:00 12 4 Noroeste 12 Noroeste 0 -- -- 89
2020-03-15 22:00:00 12.9 3 Noroeste 20 Noroeste 0 -- -- 82
2020-03-15 21:00:00 14.7 11 Noroeste 20 Oeste 0 -- -- 75
2020-03-15 20:00:00 16.8 8 Noroeste 14 Noroeste 0 -- -- 63
2020-03-15 19:00:00 19.1 9 Oeste 18 Oeste 0 -- -- 55
2020-03-15 18:00:00 20.9 3 Nordeste 14 Sudoeste 0 -- -- 52
2020-03-15 17:00:00 19.8 10 Noroeste 21 Norte 0 -- -- 56
2020-03-15 16:00:00 20 13 Noroeste 24 Oeste 0 -- -- 57
2020-03-15 15:00:00 20.6 12 Noroeste 21 Oeste 0 -- -- 56
2020-03-15 14:00:00 20.6 10 Noroeste 19 Noroeste 0 -- -- 56
2020-03-15 13:00:00 19.7 8 Oeste 20 Oeste 0 -- -- 56
2020-03-15 12:00:00 18.3 4 Sur 13 Sur 0 -- -- 56
2020-03-15 11:00:00 16 3 Nordeste 10 Nordeste 0 -- -- 58
2020-03-15 10:00:00 12.9 0 Calma 3 Sudoeste 0 -- -- 70
2020-03-15 09:00:00 12 0 Calma 7 Este 0 -- -- 73
2020-03-15 08:00:00 10.5 3 Este 6 Este 0 -- -- 75
2020-03-15 07:00:00 11.6 2 Este 6 Este 0 -- -- 69
2020-03-15 06:00:00 11.2 2 Este 7 Este 0 -- -- 73
2020-03-15 05:00:00 11.1 3 Sudeste 20 Este 0 -- -- 77
2020-03-15 04:00:00 11.4 0 Calma 8 Sudeste 0 -- -- 76
2020-03-15 03:00:00 11.5 2 Este 8 Sudeste 0 -- -- 78
2020-03-15 02:00:00 12.5 7 Este 13 Sudeste 0 -- -- 76
2020-03-15 01:00:00 12.6 7 Este 12 Este 0 -- -- 86
2020-03-15 00:00:00 12.9 5 Este 9 Este 0 -- -- 84
2020-03-14 23:00:00 13.6 4 Este 8 Este 0 -- -- 80
2020-03-14 22:00:00 14.8 5 Este 8 Este 0 -- -- 78
2020-03-14 21:00:00 16 2 Nordeste 10 Noroeste 0 -- -- 75
2020-03-14 20:00:00 16.9 7 Norte 11 Oeste 0 -- -- 72
2020-03-14 19:00:00 19.3 6 Oeste 15 Noroeste 0 -- -- 65
2020-03-14 18:00:00 20.6 8 Noroeste 16 Sudoeste 0 -- -- 61
2020-03-14 17:00:00 21.3 9 Noroeste 19 Oeste 0 -- -- 58
2020-03-14 16:00:00 21 11 Oeste 22 Oeste 0 -- -- 61
2020-03-14 15:00:00 20.3 10 Noroeste 22 Oeste 0 -- -- 63
2020-03-14 14:00:00 19.3 13 Noroeste 24 Oeste 0 -- -- 66
2020-03-14 13:00:00 18.3 13 Noroeste 24 Oeste 0 -- -- 70
2020-03-14 12:00:00 18.1 15 Noroeste 20 Noroeste 0 -- -- 70
2020-03-14 11:00:00 18.2 6 Norte 10 Nordeste 0 -- -- 65
2020-03-14 10:00:00 15.5 2 Norte 6 Este 0 -- -- 74
2020-03-14 09:00:00 11.7 3 Sudeste 9 Este 0 -- -- 83
2020-03-14 08:00:00 9.6 4 Este 6 Este 0 -- -- 89
2020-03-14 07:00:00 10.1 0 Calma 7 Este 0 -- -- 87
2020-03-14 06:00:00 10.3 3 Este 9 Este 0 -- -- 87
2020-03-14 05:00:00 10.7 5 Este 14 Este 0 -- -- 85
2020-03-14 04:00:00 10.5 8 Este 13 Este 0 -- -- 85
2020-03-14 03:00:00 11.2 3 Este 8 Este 0 -- -- 85
2020-03-14 02:00:00 11.4 2 Sudeste 8 Este 0 -- -- 84
2020-03-14 01:00:00 11.5 7 Este 10 Sudeste 0 -- -- 83
2020-03-14 00:00:00 12 3 Este 5 Este 0 -- -- 86
2020-03-13 23:00:00 13.2 3 Noroeste 10 Noroeste 0 -- -- 83
2020-03-13 22:00:00 14.4 5 Noroeste 8 Norte 0 -- -- 79
2020-03-13 21:00:00 15.4 2 Sudoeste 12 Noroeste 0 -- -- 71
2020-03-13 20:00:00 16.3 9 Noroeste 13 Noroeste 0 -- -- 67
2020-03-13 19:00:00 18.3 6 Noroeste 19 Oeste 0 -- -- 61
2020-03-13 18:00:00 20 7 Noroeste 18 Noroeste 0 -- -- 56
2020-03-13 17:00:00 20.6 11 Noroeste 23 Noroeste 0 -- -- 54
2020-03-13 16:00:00 20.8 13 Noroeste 21 Noroeste 0 -- -- 51
2020-03-13 15:00:00 20.3 10 Noroeste 20 Oeste 0 -- -- 56
2020-03-13 14:00:00 19.4 10 Noroeste 17 Oeste 0 -- -- 60
2020-03-13 13:00:00 17 8 Oeste 18 Oeste 0 -- -- 67
2020-03-13 12:00:00 14.9 11 Oeste 15 Oeste 0 -- -- 76
2020-03-13 11:00:00 13 9 Sudoeste 12 Sudoeste 0 -- -- 80
2020-03-13 10:00:00 12.6 5 Sudoeste 7 Sudoeste 0 -- -- 78
2020-03-13 09:00:00 10.8 0 Calma 9 Este 0 -- -- 80
2020-03-13 08:00:00 10.9 6 Este 13 Este 0 -- -- 76
2020-03-13 07:00:00 11.6 6 Este 9 Este 0 -- -- 78
2020-03-13 06:00:00 11.4 7 Este 10 Este 0 -- -- 83
2020-03-13 05:00:00 11.9 6 Este 10 Sudeste 0 -- -- 80
2020-03-13 04:00:00 12.6 2 Este 12 Este 0 -- -- 82
2020-03-13 03:00:00 12 7 Este 11 Este 0 -- -- 85
2020-03-13 02:00:00 12.8 6 Este 12 Este 0 -- -- 82
2020-03-13 01:00:00 13.2 5 Este 9 Este 0 -- -- 80
2020-03-13 00:00:00 14.2 0 Calma 5 Este 0 -- -- 78
2020-03-12 23:00:00 14.9 3 Sudeste 6 Este 0 -- -- 75
2020-03-12 22:00:00 15.7 0 Calma 6 Norte 0 -- -- 73
2020-03-12 21:00:00 16.2 3 Noroeste 10 Norte 0 -- -- 70
2020-03-12 20:00:00 17 12 Norte 19 Oeste 0 -- -- 67
2020-03-12 19:00:00 21.5 9 Noroeste 20 Oeste 0 -- -- 57
2020-03-12 18:00:00 24.3 8 Noroeste 17 Oeste 0 -- -- 47
2020-03-12 17:00:00 24.2 10 Norte 19 Noroeste 0 -- -- 49
2020-03-12 16:00:00 24.7 11 Noroeste 22 Oeste 0 -- -- 48
2020-03-12 15:00:00 24.2 10 Noroeste 19 Noroeste 0 -- -- 49
2020-03-12 14:00:00 23.9 13 Noroeste 22 Noroeste 0 -- -- 43
2020-03-12 13:00:00 24 13 Noroeste 18 Noroeste 0 -- -- 45
2020-03-12 12:00:00 23.3 5 Sudoeste 12 Sudoeste 0 -- -- 40
2020-03-12 11:00:00 21.8 6 Sudoeste 10 Sudoeste 0 -- -- 42
2020-03-12 10:00:00 20.5 4 Este 8 Norte 0 -- -- 40
2020-03-12 09:00:00 18.1 2 Sudoeste 7 Sur 0 -- -- 41
2020-03-12 08:00:00 17.5 2 Sur 8 Oeste 0 -- -- 40
2020-03-12 07:00:00 17.4 3 Sudeste 14 Sudeste 0 -- -- 39
2020-03-12 06:00:00 17.2 4 Sudeste 17 Sudeste 0 -- -- 40
2020-03-12 05:00:00 17.9 5 Sudeste 18 Sudeste 0 -- -- 38
2020-03-12 04:00:00 18.4 8 Este 13 Este 0 -- -- 37
2020-03-12 03:00:00 18.6 5 Sudeste 10 Sudeste 0 -- -- 35
2020-03-12 02:00:00 19.1 4 Norte 12 Nordeste 0 -- -- 34
2020-03-12 01:00:00 19.3 4 Nordeste 15 Sudeste 0 -- -- 34
2020-03-12 00:00:00 19.6 11 Sudeste 20 Sudeste 0 -- -- 34
2020-03-11 23:00:00 20.3 8 Sudeste 21 Sudeste 0 -- -- 33
2020-03-11 22:00:00 20.4 12 Este 19 Este 0 -- -- 33
2020-03-11 21:00:00 20.5 0 Calma 9 Este 0 -- -- 35
2020-03-11 20:00:00 22.8 6 Este 10 Este 0 -- -- 32
2020-03-11 19:00:00 26.2 3 Sur 13 Sur 0 -- -- 29
2020-03-11 18:00:00 27.8 6 Sur 14 Sur 0 -- -- 26
2020-03-11 17:00:00 27.1 5 Sudeste 19 Sudeste 0 -- -- 29
2020-03-11 16:00:00 27.6 5 Sudeste 24 Sudeste 0 -- -- 27
2020-03-11 15:00:00 28.7 10 Sudeste 21 Sudeste 0 -- -- 25
2020-03-11 14:00:00 29.1 9 Este 19 Este 0 -- -- 25
2020-03-11 13:00:00 27.2 3 Sudoeste 13 Sudoeste 0 -- -- 30
2020-03-11 12:00:00 26.1 4 Sur 10 Norte 0 -- -- 32
2020-03-11 11:00:00 23.8 2 Nordeste 5 Este 0 -- -- 36
2020-03-11 10:00:00 20.4 3 Este 8 Este 0 -- -- 42
2020-03-11 09:00:00 17.2 4 Este 5 Este 0 -- -- 48
2020-03-11 08:00:00 15.8 2 Sur 6 Este 0 -- -- 49
2020-03-11 07:00:00 15.3 2 Este 8 Este 0 -- -- 51
2020-03-11 06:00:00 14.6 7 Este 17 Sudeste 0 -- -- 53
2020-03-11 05:00:00 13 9 Este 16 Sudeste 0 -- -- 58
2020-03-11 04:00:00 15 5 Este 13 Este 0 -- -- 52
2020-03-11 03:00:00 16.6 7 Este 11 Este 0 -- -- 48
2020-03-11 02:00:00 14.3 3 Sudeste 8 Sudeste 0 -- -- 55
2020-03-11 01:00:00 14.7 5 Sudeste 13 Sudeste 0 -- -- 54
2020-03-11 00:00:00 14.8 4 Sudeste 14 Este 0 -- -- 53
2020-03-10 23:00:00 17.3 6 Este 18 Este 0 -- -- 45
2020-03-10 22:00:00 16.7 7 Este 14 Este 0 -- -- 48
2020-03-10 21:00:00 17.7 3 Este 9 Este 0 -- -- 45
2020-03-10 20:00:00 19.4 3 Este 14 Este 0 -- -- 41
2020-03-10 19:00:00 21.7 12 Este 23 Este 0 -- -- 36
2020-03-10 18:00:00 23.4 14 Este 25 Nordeste 0 -- -- 34
2020-03-10 17:00:00 24.8 11 Nordeste 19 Nordeste 0 -- -- 32
2020-03-10 16:00:00 25.1 13 Nordeste 21 Nordeste 0 -- -- 31
2020-03-10 15:00:00 25.7 11 Nordeste 19 Norte 0 -- -- 30
2020-03-10 14:00:00 25.8 4 Sudoeste 12 Sudeste 0 -- -- 28
2020-03-10 13:00:00 24.8 5 Sudeste 20 Este 0 -- -- 28
2020-03-10 12:00:00 22.8 5 Sudeste 21 Este 0 -- -- 32
2020-03-10 11:00:00 18.7 3 Oeste 14 Nordeste 0 -- -- 43
2020-03-10 10:00:00 16.9 2 Sudoeste 8 Nordeste 0 -- -- 44
2020-03-10 09:00:00 14.3 3 Nordeste 11 Este 0 -- -- 51
2020-03-10 08:00:00 12.2 5 Este 11 Este 0 -- -- 53
2020-03-10 07:00:00 13.4 5 Este 22 Este 0 -- -- 50
2020-03-10 06:00:00 14.2 13 Este 25 Nordeste 0 -- -- 46
2020-03-10 05:00:00 13.2 8 Este 15 Este 0 -- -- 49
2020-03-10 04:00:00 11.9 8 Este 14 Este 0 -- -- 54
2020-03-10 03:00:00 11.7 6 Este 13 Este 0 -- -- 55
2020-03-10 02:00:00 12.8 6 Este 13 Este 0 -- -- 53
2020-03-10 01:00:00 12 9 Este 12 Este 0 -- -- 58
2020-03-10 00:00:00 13.9 6 Nordeste 12 Nordeste 0 -- -- 52
2020-03-09 23:00:00 13.5 3 Este 10 Este 0 -- -- 55
2020-03-09 22:00:00 14.1 4 Este 8 Este 0 -- -- 53
2020-03-09 21:00:00 14.8 5 Este 8 Este 0 -- -- 52
2020-03-09 20:00:00 16.1 2 Noroeste 14 Norte 0 -- -- 48
2020-03-09 19:00:00 17.8 5 Norte 19 Noroeste 0 -- -- 43
2020-03-09 18:00:00 19 10 Norte 25 Norte 0 -- -- 38
2020-03-09 17:00:00 19.3 17 Norte 28 Noroeste 0 -- -- 36
2020-03-09 16:00:00 21.4 9 Noroeste 22 Noroeste 0 -- -- 36
2020-03-09 15:00:00 21 13 Noroeste 24 Noroeste 0 -- -- 38
2020-03-09 14:00:00 21.1 9 Norte 27 Sur 0 -- -- 28
2020-03-09 13:00:00 20 3 Norte 14 Este 0 -- -- 33
2020-03-09 12:00:00 18.6 6 Este 13 Nordeste 0 -- -- 36
2020-03-09 11:00:00 16.9 4 Nordeste 12 Nordeste 0 -- -- 51
2020-03-09 10:00:00 14.2 2 Sudeste 8 Este 0 -- -- 58
2020-03-09 09:00:00 9.7 4 Este 14 Este 0 -- -- 68
2020-03-09 08:00:00 8.1 5 Este 9 Este 0 -- -- 67
2020-03-09 07:00:00 8.8 6 Este 12 Este 0 -- -- 63
2020-03-09 06:00:00 9 4 Este 11 Este 0 -- -- 61
2020-03-09 05:00:00 8.5 7 Este 13 Sudeste 0 -- -- 60
2020-03-09 04:00:00 10.6 3 Nordeste 10 Norte 0 -- -- 56
2020-03-09 03:00:00 9.8 6 Este 12 Sudeste 0 -- -- 56
2020-03-09 02:00:00 12.2 3 Este 7 Nordeste 0 -- -- 50
2020-03-09 01:00:00 11.9 5 Nordeste 9 Este 0 -- -- 51
2020-03-09 00:00:00 13.3 2 Este 8 Este 0 -- -- 47
2020-03-08 23:00:00 13.6 3 Este 12 Este 0 -- -- 46
2020-03-08 22:00:00 14.7 5 Este 8 Este 0 -- -- 43
2020-03-08 21:00:00 15 5 Este 13 Oeste 0 -- -- 43
2020-03-08 20:00:00 16.3 4 Noroeste 19 Oeste 0 -- -- 40
2020-03-08 19:00:00 18.3 9 Noroeste 18 Oeste 0 -- -- 35
2020-03-08 18:00:00 20.6 7 Noroeste 20 Noroeste 0 -- -- 32
2020-03-08 17:00:00 21.8 11 Oeste 21 Oeste 0 -- -- 28
2020-03-08 16:00:00 22 12 Oeste 23 Oeste 0 -- -- 34
2020-03-08 15:00:00 22.1 14 Oeste 23 Oeste 0 -- -- 29
2020-03-08 14:00:00 21.4 9 Oeste 15 Noroeste 0 -- -- 30
2020-03-08 13:00:00 20.5 5 Noroeste 13 Norte 0 -- -- 32
2020-03-08 12:00:00 19 5 Norte 15 Nordeste 0 -- -- 36
2020-03-08 11:00:00 17.6 6 Nordeste 10 Nordeste 0 -- -- 39
2020-03-08 10:00:00 13.8 4 Sudeste 16 Sudeste 0 -- -- 47
2020-03-08 09:00:00 9.5 7 Este 13 Este 0 -- -- 57
2020-03-08 08:00:00 7.1 6 Este 13 Este 0 -- -- 61
2020-03-08 07:00:00 7.8 4 Este 17 Este 0 -- -- 59
2020-03-08 06:00:00 7.5 6 Este 15 Este 0 -- -- 60
2020-03-08 05:00:00 7.5 5 Este 18 Este 0 -- -- 60
2020-03-08 04:00:00 7.9 9 Este 18 Este 0 -- -- 59
2020-03-08 03:00:00 8.6 5 Este 12 Este 0 -- -- 56
2020-03-08 02:00:00 9.4 11 Este 15 Este 0 -- -- 53
2020-03-08 01:00:00 10.1 8 Este 16 Este 0 -- -- 50
2020-03-08 00:00:00 10.2 9 Este 14 Este 0 -- -- 51
2020-03-07 23:00:00 9.9 8 Este 14 Este 0 -- -- 51
2020-03-07 22:00:00 10.9 5 Sudeste 9 Este 0 -- -- 49
2020-03-07 21:00:00 11.9 5 Este 11 Sudeste 0 -- -- 45
2020-03-07 20:00:00 13 4 Este 12 Este 0 -- -- 42
2020-03-07 19:00:00 15 4 Nordeste 20 Nordeste 0 -- -- 37
2020-03-07 18:00:00 15.9 6 Nordeste 22 Nordeste 0 -- -- 37
2020-03-07 17:00:00 17.5 10 Norte 22 Nordeste 0 -- -- 35
2020-03-07 16:00:00 18.4 10 Nordeste 24 Nordeste 0 -- -- 33
2020-03-07 15:00:00 17.4 13 Este 26 Nordeste 0 -- -- 33
2020-03-07 14:00:00 16.8 12 Este 31 Nordeste 0 -- -- 33
2020-03-07 13:00:00 15.8 10 Nordeste 31 Nordeste 0 -- -- 34
2020-03-07 12:00:00 14.5 12 Nordeste 33 Este 0 -- -- 35
2020-03-07 11:00:00 12.7 14 Este 33 Nordeste 0 -- -- 48
2020-03-07 10:00:00 10.8 11 Este 23 Este 0 -- -- 55
2020-03-07 09:00:00 6.3 6 Este 12 Este 0 -- -- 71
2020-03-07 08:00:00 4.6 4 Este 11 Este 0 -- -- 76
2020-03-07 07:00:00 4.8 4 Este 9 Este 0 -- -- 77
2020-03-07 06:00:00 5.5 7 Este 13 Este 0 -- -- 75
2020-03-07 05:00:00 7.3 3 Este 8 Este 0 -- -- 67
2020-03-07 04:00:00 6.9 4 Este 9 Nordeste 0 -- -- 74
2020-03-07 03:00:00 7.8 0 Calma 8 Noroeste 0 -- -- 71
2020-03-07 02:00:00 8 3 Este 10 Este 0 -- -- 71
2020-03-07 01:00:00 8.4 2 Este 5 Norte 0 -- -- 69
2020-03-07 00:00:00 9.4 4 Nordeste 7 Nordeste 0 -- -- 65
2020-03-06 23:00:00 9.9 5 Oeste 15 Noroeste 0 -- -- 62
2020-03-06 22:00:00 10.6 4 Oeste 17 Oeste 0 -- -- 59
2020-03-06 21:00:00 11.3 4 Oeste 21 Oeste 0 -- -- 58
2020-03-06 20:00:00 12.1 11 Noroeste 18 Oeste 0 -- -- 57
2020-03-06 19:00:00 13.9 7 Noroeste 23 Noroeste 0 -- -- 53
2020-03-06 18:00:00 15 18 Oeste 34 Oeste 0 -- -- 49
2020-03-06 17:00:00 15.3 11 Noroeste 38 Oeste 0 -- -- 50
2020-03-06 16:00:00 15 14 Oeste 35 Oeste 0 -- -- 54
2020-03-06 15:00:00 14.1 23 Oeste 35 Oeste 0 -- -- 58
2020-03-06 14:00:00 13 14 Noroeste 34 Oeste 0 -- -- 60
2020-03-06 13:00:00 13.2 20 Oeste 32 Oeste 0 -- -- 66
2020-03-06 12:00:00 11.1 17 Oeste 35 Oeste 0 -- -- 74
2020-03-06 11:00:00 10 15 Oeste 28 Oeste 0 -- -- 82
2020-03-06 10:00:00 9 6 Noroeste 19 Oeste 0 -- -- 85
2020-03-06 09:00:00 7.2 12 Oeste 21 Oeste 0 -- -- 88
2020-03-06 08:00:00 5.9 8 Oeste 17 Noroeste 0 -- -- 89
2020-03-06 07:00:00 5.8 7 Oeste 19 Oeste 0 -- -- 91
2020-03-06 06:00:00 5.7 6 Oeste 17 Oeste 0 -- -- 90
2020-03-06 05:00:00 6.1 8 Oeste 17 Oeste 0 -- -- 89
2020-03-06 04:00:00 6.7 8 Noroeste 17 Noroeste 0 -- -- 86
2020-03-06 03:00:00 7.3 8 Oeste 16 Oeste 0 -- -- 83
2020-03-06 02:00:00 8.2 7 Oeste 19 Oeste 0 -- -- 79
2020-03-06 01:00:00 8.8 6 Noroeste 14 Oeste 0 -- -- 76
2020-03-06 00:00:00 9.6 9 Oeste 18 Oeste 0 -- -- 75
2020-03-05 23:00:00 10.3 9 Oeste 18 Oeste 0 -- -- 72
2020-03-05 22:00:00 11.3 6 Oeste 17 Oeste 0 -- -- 69
2020-03-05 21:00:00 11.9 8 Oeste 17 Oeste 0 -- -- 69
2020-03-05 20:00:00 11.8 6 Oeste 26 Oeste 0 -- -- 70
2020-03-05 19:00:00 13.5 16 Oeste 31 Oeste 0 -- -- 65
2020-03-05 18:00:00 13.9 19 Oeste 32 Oeste 0 -- -- 75
2020-03-05 17:00:00 13.5 20 Oeste 32 Oeste 0 -- -- 80
2020-03-05 16:00:00 12.6 16 Oeste 31 Sudoeste 0 -- -- 87
2020-03-05 15:00:00 11.6 17 Oeste 32 Sudoeste 0 -- -- 93
2020-03-05 14:00:00 12.1 14 Sudoeste 30 Oeste 0 -- -- 89
2020-03-05 13:00:00 12.7 13 Oeste 26 Sudoeste 0 -- -- 82
2020-03-05 12:00:00 13.5 15 Sudoeste 33 Oeste 0 -- -- 78
2020-03-05 11:00:00 13.3 15 Oeste 31 Oeste 0 -- -- 79
2020-03-05 10:00:00 12.8 10 Oeste 19 Oeste 0 -- -- 81
2020-03-05 09:00:00 9.7 0 Calma 7 Este 0 -- -- 86
2020-03-05 08:00:00 8.3 4 Este 9 Este 0 -- -- 88
2020-03-05 07:00:00 7.5 6 Este 10 Este 0 -- -- 91
2020-03-05 06:00:00 8.2 3 Este 13 Este 0 -- -- 93
2020-03-05 05:00:00 7.8 9 Este 14 Este 0 -- -- 93
2020-03-05 04:00:00 8.4 3 Este 10 Sudeste 0 -- -- 93
2020-03-05 03:00:00 8.7 8 Este 11 Sudeste 0 -- -- 93
2020-03-05 02:00:00 9.3 6 Este 9 Este 0 -- -- 92
2020-03-05 01:00:00 9.7 7 Este 11 Este 0 -- -- 89
2020-03-05 00:00:00 11 0 Calma 6 Norte 0 -- -- 90